createdAt,value
2023-04-16T00:00:43.472Z,97313.35
2023-04-16T00:03:34.640Z,97312.54
2023-04-16T00:06:06.407Z,97309.28
2023-04-16T00:08:37.806Z,97313.00
2023-04-16T00:11:07.601Z,97310.96
2023-04-16T00:13:38.692Z,97309.29
2023-04-16T00:16:10.731Z,97306.65
2023-04-16T00:18:41.782Z,97307.32
2023-04-16T00:21:12.778Z,97311.95
2023-04-16T00:23:45.613Z,97314.09
2023-04-16T00:26:17.549Z,97315.42
2023-04-16T00:28:48.815Z,97319.27
2023-04-16T00:31:19.895Z,97320.09
2023-04-16T00:33:49.544Z,97319.83
2023-04-16T00:36:20.588Z,97325.82
2023-04-16T00:38:52.445Z,97322.54
2023-04-16T00:41:23.770Z,97325.02
2023-04-16T00:43:55.689Z,97319.11
2023-04-16T00:46:27.213Z,97323.16
2023-04-16T00:48:58.653Z,97318.38
2023-04-16T00:51:29.863Z,97319.27
2023-04-16T00:54:01.882Z,97322.29
2023-04-16T00:56:33.319Z,97316.80
2023-04-16T00:59:04.467Z,97324.88
2023-04-16T01:01:36.106Z,97328.04
2023-04-16T01:04:08.419Z,97326.45
2023-04-16T01:06:39.379Z,97329.02
2023-04-16T01:09:11.376Z,97322.64
2023-04-16T01:11:42.650Z,97325.10
2023-04-16T01:14:13.632Z,97323.59
2023-04-16T01:16:44.868Z,97321.71
2023-04-16T01:19:16.082Z,97321.06
2023-04-16T01:21:45.823Z,97323.20
2023-04-16T01:24:16.940Z,97319.50
2023-04-16T01:26:48.170Z,97314.61
2023-04-16T01:29:19.094Z,97311.11
2023-04-16T01:31:50.091Z,97317.58
2023-04-16T01:34:21.064Z,97321.04
2023-04-16T01:36:52.327Z,97320.02
2023-04-16T01:39:23.511Z,97318.65
2023-04-16T01:41:54.347Z,97320.67
2023-04-16T01:44:25.680Z,97320.77
2023-04-16T01:46:55.014Z,97324.44
2023-04-16T01:49:26.493Z,97323.48
2023-04-16T01:51:55.943Z,97325.71
2023-04-16T01:54:27.076Z,97324.77
2023-04-16T01:56:57.311Z,97328.39
2023-04-16T01:59:26.716Z,97325.87
2023-04-16T02:01:58.424Z,97328.38
2023-04-16T02:04:29.822Z,97329.30
2023-04-16T02:07:00.875Z,97329.36
2023-04-16T02:09:32.001Z,97327.67
2023-04-16T02:12:03.428Z,97332.54
2023-04-16T02:14:35.109Z,97335.44
2023-04-16T02:17:06.663Z,97333.27
2023-04-16T02:19:37.822Z,97337.73
2023-04-16T02:22:08.842Z,97334.64
2023-04-16T02:24:39.851Z,97337.44
2023-04-16T02:27:11.270Z,97341.45
2023-04-16T02:29:42.289Z,97344.75
2023-04-16T02:32:13.475Z,97345.62
2023-04-16T02:34:44.638Z,97351.66
2023-04-16T02:37:16.593Z,97349.13
2023-04-16T02:39:49.848Z,97350.80
2023-04-16T02:42:20.977Z,97356.95
2023-04-16T02:44:52.317Z,97352.92
2023-04-16T02:47:23.382Z,97354.08
2023-04-16T02:49:54.757Z,97356.70
2023-04-16T02:52:26.058Z,97355.45
2023-04-16T02:54:55.571Z,97357.58
2023-04-16T02:57:26.693Z,97357.88
2023-04-16T03:00:00.318Z,97359.35
2023-04-16T03:02:32.094Z,97357.58
2023-04-16T03:05:03.295Z,97358.84
2023-04-16T03:07:34.361Z,97361.06
2023-04-16T03:10:05.759Z,97363.65
2023-04-16T03:12:37.073Z,97363.42
2023-04-16T03:15:07.315Z,97359.98
2023-04-16T03:17:38.323Z,97362.72
2023-04-16T03:20:12.264Z,97366.97
2023-04-16T03:22:43.351Z,97365.62
2023-04-16T03:25:12.985Z,97369.00
2023-04-16T03:27:44.197Z,97371.93
2023-04-16T03:30:16.496Z,97374.96
2023-04-16T03:32:47.748Z,97370.92
2023-04-16T03:35:19.417Z,97374.11
2023-04-16T03:37:50.581Z,97374.92
2023-04-16T03:40:22.012Z,97374.56
2023-04-16T03:42:53.240Z,97373.80
2023-04-16T03:45:24.172Z,97377.63
2023-04-16T03:47:55.261Z,97384.11
2023-04-16T03:50:26.358Z,97388.87
2023-04-16T03:52:57.464Z,97388.91
2023-04-16T03:55:29.482Z,97395.86
2023-04-16T03:58:03.272Z,97402.01
2023-04-16T04:00:34.699Z,97407.54
2023-04-16T04:03:06.206Z,97410.33
2023-04-16T04:05:40.295Z,97413.11
2023-04-16T04:08:11.608Z,97417.17
2023-04-16T04:10:41.073Z,97423.38
2023-04-16T04:13:12.031Z,97428.94
2023-04-16T04:15:43.112Z,97435.30
2023-04-16T04:18:14.014Z,97443.80
2023-04-16T04:20:45.590Z,97448.33
2023-04-16T04:23:16.688Z,97450.35
2023-04-16T04:25:48.274Z,97456.91
2023-04-16T04:28:19.381Z,97459.34
2023-04-16T04:30:48.907Z,97461.35
2023-04-16T04:33:20.082Z,97466.39
2023-04-16T04:35:52.696Z,97466.73
2023-04-16T04:38:25.482Z,97469.96
2023-04-16T04:40:56.932Z,97473.97
2023-04-16T04:43:28.416Z,97478.43
2023-04-16T04:45:59.815Z,97484.42
2023-04-16T04:48:30.779Z,97487.70
2023-04-16T04:51:05.341Z,97490.03
2023-04-16T04:53:36.814Z,97489.55
2023-04-16T04:56:12.100Z,97489.68
2023-04-16T04:58:44.303Z,97488.76
2023-04-16T05:01:13.693Z,97491.67
2023-04-16T05:03:45.517Z,97493.95
2023-04-16T05:06:16.805Z,97496.60
2023-04-16T05:08:48.129Z,97499.39
2023-04-16T05:11:19.107Z,97501.35
2023-04-16T05:13:50.204Z,97502.17
2023-04-16T05:16:21.083Z,97506.27
2023-04-16T05:18:56.286Z,97509.40
2023-04-16T05:21:27.587Z,97511.11
2023-04-16T05:23:59.943Z,97506.52
2023-04-16T05:26:31.067Z,97510.69
2023-04-16T05:29:02.339Z,97514.72
2023-04-16T05:31:33.676Z,97514.19
2023-04-16T05:34:04.901Z,97516.17
2023-04-16T05:36:36.104Z,97513.81
2023-04-16T05:39:08.037Z,97514.92
2023-04-16T05:41:39.449Z,97513.70
2023-04-16T05:44:08.830Z,97516.90
2023-04-16T05:46:39.715Z,97521.19
2023-04-16T05:49:09.778Z,97520.14
2023-04-16T05:51:41.059Z,97522.36
2023-04-16T05:54:12.258Z,97525.13
2023-04-16T05:56:43.332Z,97522.77
2023-04-16T05:59:14.337Z,97524.94
2023-04-16T06:01:45.948Z,97525.50
2023-04-16T06:04:17.345Z,97530.42
2023-04-16T06:06:46.749Z,97533.31
2023-04-16T06:09:18.349Z,97532.75
2023-04-16T06:11:49.493Z,97534.90
2023-04-16T06:14:18.999Z,97536.92
2023-04-16T06:16:49.989Z,97541.88
2023-04-16T06:19:21.121Z,97541.86
2023-04-16T06:21:52.456Z,97544.62
2023-04-16T06:24:23.912Z,97538.18
2023-04-16T06:26:55.604Z,97546.23
2023-04-16T06:29:36.865Z,97549.77
2023-04-16T06:32:11.818Z,97548.51
2023-04-16T06:34:42.940Z,97551.39
2023-04-16T06:37:14.502Z,97552.33
2023-04-16T06:39:45.444Z,97549.67
2023-04-16T06:42:16.442Z,97551.22
2023-04-16T06:44:45.839Z,97555.23
2023-04-16T06:47:17.390Z,97557.81
2023-04-16T06:49:48.409Z,97560.35
2023-04-16T06:52:17.904Z,97563.73
2023-04-16T06:54:48.866Z,97565.91
2023-04-16T06:57:20.178Z,97563.96
2023-04-16T06:59:51.806Z,97572.08
2023-04-16T07:02:23.275Z,97572.28
2023-04-16T07:04:54.686Z,97572.17
2023-04-16T07:07:26.005Z,97575.50
2023-04-16T07:09:57.073Z,97576.21
2023-04-16T07:12:28.485Z,97580.58
2023-04-16T07:14:59.558Z,97580.83
2023-04-16T07:17:30.803Z,97583.89
2023-04-16T07:20:01.873Z,97585.78
2023-04-16T07:22:34.447Z,97587.28
2023-04-16T07:25:06.688Z,97584.55
2023-04-16T07:27:37.878Z,97586.67
2023-04-16T07:30:10.767Z,97585.01
2023-04-16T07:32:41.808Z,97589.22
2023-04-16T07:35:13.471Z,97589.66
2023-04-16T07:37:45.247Z,97593.66
2023-04-16T07:40:16.749Z,97596.30
2023-04-16T07:42:48.080Z,97599.40
2023-04-16T07:45:20.186Z,97601.23
2023-04-16T07:47:51.520Z,97600.90
2023-04-16T07:50:22.738Z,97600.86
2023-04-16T07:52:54.929Z,97604.72
2023-04-16T07:55:26.568Z,97604.33
2023-04-16T07:57:57.661Z,97602.77
2023-04-16T08:00:28.725Z,97604.02
2023-04-16T08:03:00.040Z,97600.61
2023-04-16T08:05:31.444Z,97604.37
2023-04-16T08:08:02.820Z,97599.17
2023-04-16T08:10:34.362Z,97604.27
2023-04-16T08:13:08.491Z,97609.73
2023-04-16T08:15:39.952Z,97611.45
2023-04-16T08:18:15.690Z,97608.21
2023-04-16T08:20:46.829Z,97613.98
2023-04-16T08:23:18.141Z,97614.89
2023-04-16T08:25:49.632Z,97616.38
2023-04-16T08:28:21.616Z,97619.38
2023-04-16T08:30:53.081Z,97618.85
2023-04-16T08:33:24.084Z,97626.77
2023-04-16T08:35:55.231Z,97628.99
2023-04-16T08:38:26.518Z,97631.27
2023-04-16T08:40:58.125Z,97636.38
2023-04-16T08:43:34.450Z,97641.23
2023-04-16T08:46:06.485Z,97642.13
2023-04-16T08:48:38.314Z,97644.27
2023-04-16T08:51:13.460Z,97643.65
2023-04-16T08:53:54.931Z,97643.03
2023-04-16T08:56:27.070Z,97643.38
2023-04-16T08:58:58.564Z,97643.42
2023-04-16T09:01:29.891Z,97644.70
2023-04-16T09:04:02.871Z,97645.61
2023-04-16T09:06:35.919Z,97647.60
2023-04-16T09:09:08.418Z,97646.48
2023-04-16T09:11:40.950Z,97647.02
2023-04-16T09:14:14.754Z,97648.33
2023-04-16T09:16:47.951Z,97649.53
2023-04-16T09:19:19.038Z,97650.71
2023-04-16T09:21:51.235Z,97650.70
2023-04-16T09:24:24.991Z,97651.48
2023-04-16T09:26:57.612Z,97649.80
2023-04-16T09:29:49.993Z,97651.75
2023-04-16T09:32:28.419Z,97649.96
2023-04-16T09:35:01.188Z,97647.23
2023-04-16T09:37:33.311Z,97651.17
2023-04-16T09:40:05.570Z,97655.97
2023-04-16T09:42:38.263Z,97659.66
2023-04-16T09:45:10.983Z,97655.34
2023-04-16T09:47:47.101Z,97654.27
2023-04-16T09:50:19.986Z,97653.81
2023-04-16T09:52:52.843Z,97654.30
2023-04-16T09:55:29.780Z,97655.84
2023-04-16T09:58:03.593Z,97658.72
2023-04-16T10:00:35.257Z,97655.17
2023-04-16T10:03:14.318Z,97658.31
2023-04-16T10:05:45.714Z,97655.39
2023-04-16T10:08:18.843Z,97657.63
2023-04-16T10:10:49.919Z,97657.58
2023-04-16T10:13:21.177Z,97658.58
2023-04-16T10:15:52.776Z,97657.73
2023-04-16T10:18:24.127Z,97656.39
2023-04-16T10:20:56.241Z,97659.97
2023-04-16T10:23:27.707Z,97657.20
2023-04-16T10:25:59.999Z,97655.60
2023-04-16T10:28:31.522Z,97655.84
2023-04-16T10:31:04.529Z,97654.95
2023-04-16T10:33:37.934Z,97653.71
2023-04-16T10:36:14.164Z,97659.04
2023-04-16T10:38:50.644Z,97657.00
2023-04-16T10:41:22.479Z,97652.48
2023-04-16T10:43:54.011Z,97654.81
2023-04-16T10:46:27.104Z,97652.98
2023-04-16T10:49:01.561Z,97652.23
2023-04-16T10:51:34.579Z,97652.61
2023-04-16T10:54:21.714Z,97653.52
2023-04-16T10:56:54.097Z,97657.90
2023-04-16T10:59:26.367Z,97657.48
2023-04-16T11:02:00.235Z,97655.91
2023-04-16T11:04:37.083Z,97652.56
2023-04-16T11:07:16.581Z,97651.59
2023-04-16T11:09:55.466Z,97650.77
2023-04-16T11:12:29.147Z,97648.77
2023-04-16T11:15:04.876Z,97651.45
2023-04-16T11:17:40.408Z,97653.86
2023-04-16T11:20:20.246Z,97650.03
2023-04-16T11:22:52.914Z,97651.89
2023-04-16T11:25:24.789Z,97655.41
2023-04-16T11:27:57.097Z,97658.52
2023-04-16T11:30:34.477Z,97663.91
2023-04-16T11:33:06.765Z,97661.36
2023-04-16T11:35:39.291Z,97659.86
2023-04-16T11:38:10.456Z,97659.16
2023-04-16T11:40:43.642Z,97660.10
2023-04-16T11:43:17.957Z,97665.86
2023-04-16T11:46:00.549Z,97667.04
2023-04-16T11:48:49.134Z,97672.73
2023-04-16T11:51:21.940Z,97669.62
2023-04-16T11:53:54.624Z,97669.92
2023-04-16T11:56:34.582Z,97668.66
2023-04-16T11:59:13.876Z,97668.71
2023-04-16T12:01:49.828Z,97669.53
2023-04-16T12:04:24.722Z,97669.15
2023-04-16T12:07:19.581Z,97670.45
2023-04-16T12:09:50.960Z,97672.93
2023-04-16T12:12:33.349Z,97672.80
2023-04-16T12:15:05.496Z,97673.52
2023-04-16T12:17:37.624Z,97672.35
2023-04-16T12:20:12.691Z,97670.53
2023-04-16T12:22:47.740Z,97670.29
2023-04-16T12:25:20.716Z,97674.12
2023-04-16T12:27:54.186Z,97674.52
2023-04-16T12:30:26.825Z,97672.30
2023-04-16T12:33:17.036Z,97668.66
2023-04-16T12:35:48.578Z,97671.81
2023-04-16T12:38:20.778Z,97666.91
2023-04-16T12:40:57.006Z,97669.35
2023-04-16T12:43:28.545Z,97665.66
2023-04-16T12:46:00.457Z,97664.39
2023-04-16T12:48:33.879Z,97658.77
2023-04-16T12:51:05.095Z,97655.34
2023-04-16T12:53:36.042Z,97657.38
2023-04-16T12:56:07.796Z,97658.06
2023-04-16T12:58:39.638Z,97660.41
2023-04-16T13:01:12.032Z,97659.85
2023-04-16T13:03:43.212Z,97660.58
2023-04-16T13:06:15.489Z,97658.08
2023-04-16T13:08:47.107Z,97658.11
2023-04-16T13:11:19.190Z,97658.89
2023-04-16T13:13:50.248Z,97656.02
2023-04-16T13:16:21.354Z,97656.82
2023-04-16T13:18:52.522Z,97660.67
2023-04-16T13:21:24.301Z,97660.73
2023-04-16T13:23:55.434Z,97658.98
2023-04-16T13:26:26.803Z,97662.09
2023-04-16T13:28:58.156Z,97660.86
2023-04-16T13:31:29.481Z,97661.95
2023-04-16T13:34:00.888Z,97659.20
2023-04-16T13:36:32.339Z,97664.04
2023-04-16T13:39:11.512Z,97656.65
2023-04-16T13:41:42.933Z,97657.25
2023-04-16T13:44:13.904Z,97659.49
2023-04-16T13:46:47.787Z,97655.33
2023-04-16T13:49:18.873Z,97660.10
2023-04-16T13:51:49.901Z,97659.33
2023-04-16T13:54:21.907Z,97658.95
2023-04-16T13:56:54.040Z,97657.54
2023-04-16T13:59:25.280Z,97662.21
2023-04-16T14:01:56.548Z,97663.94
2023-04-16T14:04:27.657Z,97664.67
2023-04-16T14:06:59.029Z,97671.77
2023-04-16T14:09:30.065Z,97674.60
2023-04-16T14:12:01.216Z,97681.08
2023-04-16T14:14:32.689Z,97694.26
2023-04-16T14:17:04.329Z,97691.63
2023-04-16T14:19:35.380Z,97699.23
2023-04-16T14:22:08.723Z,97710.20
2023-04-16T14:24:40.452Z,97713.92
2023-04-16T14:27:12.328Z,97722.20
2023-04-16T14:29:43.930Z,97720.52
2023-04-16T14:32:15.850Z,97726.92
2023-04-16T14:35:05.979Z,97729.21
2023-04-16T14:37:37.130Z,97732.09
2023-04-16T14:40:11.010Z,97734.17
2023-04-16T14:42:45.153Z,97737.73
2023-04-16T14:45:16.211Z,97743.16
2023-04-16T14:47:48.012Z,97750.38
2023-04-16T14:50:19.616Z,97748.86
2023-04-16T14:52:51.958Z,97748.80
2023-04-16T14:55:23.267Z,97748.67
2023-04-16T14:57:54.295Z,97747.64
2023-04-16T15:00:25.876Z,97745.77
2023-04-16T15:02:57.793Z,97744.10
2023-04-16T15:05:29.213Z,97740.48
2023-04-16T15:08:00.794Z,97745.06
2023-04-16T15:10:32.938Z,97745.65
2023-04-16T15:13:04.288Z,97745.35
2023-04-16T15:15:35.656Z,97746.66
2023-04-16T15:18:07.239Z,97750.39
2023-04-16T15:20:38.245Z,97752.14
2023-04-16T15:23:09.724Z,97753.90
2023-04-16T15:25:40.843Z,97757.73
2023-04-16T15:28:11.911Z,97757.38
2023-04-16T15:30:43.542Z,97757.55
2023-04-16T15:33:14.909Z,97762.50
2023-04-16T15:35:45.943Z,97766.34
2023-04-16T15:38:17.080Z,97763.31
2023-04-16T15:40:48.123Z,97760.66
2023-04-16T15:43:19.469Z,97752.60
2023-04-16T15:45:50.870Z,97758.39
2023-04-16T15:48:22.471Z,97755.23
2023-04-16T15:50:55.117Z,97762.30
2023-04-16T15:53:26.228Z,97761.55
2023-04-16T15:55:57.401Z,97762.77
2023-04-16T15:58:28.632Z,97763.96
2023-04-16T16:00:59.850Z,97760.45
2023-04-16T16:03:33.063Z,97762.17
2023-04-16T16:06:05.153Z,97766.08
2023-04-16T16:08:38.372Z,97764.28
2023-04-16T16:11:09.370Z,97766.48
2023-04-16T16:13:41.866Z,97765.25
2023-04-16T16:16:13.741Z,97763.67
2023-04-16T16:18:44.815Z,97770.06
2023-04-16T16:21:16.281Z,97765.91
2023-04-16T16:23:47.671Z,97765.38
2023-04-16T16:26:20.609Z,97766.45
2023-04-16T16:28:51.566Z,97767.75
2023-04-16T16:31:22.424Z,97767.19
2023-04-16T16:33:53.832Z,97769.27
2023-04-16T16:36:24.941Z,97769.59
2023-04-16T16:38:56.625Z,97769.51
2023-04-16T16:41:27.655Z,97767.15
2023-04-16T16:43:59.217Z,97768.46
2023-04-16T16:46:30.445Z,97769.05
2023-04-16T16:49:01.553Z,97764.26
2023-04-16T16:51:33.712Z,97768.35
2023-04-16T16:54:04.831Z,97764.61
2023-04-16T16:56:35.990Z,97765.47
2023-04-16T16:59:07.707Z,97766.67
2023-04-16T17:01:38.894Z,97766.15
2023-04-16T17:04:10.003Z,97768.20
2023-04-16T17:06:41.249Z,97768.73
2023-04-16T17:09:12.728Z,97767.10
2023-04-16T17:11:44.099Z,97768.43
2023-04-16T17:14:15.394Z,97768.92
2023-04-16T17:16:49.787Z,97771.73
2023-04-16T17:19:20.884Z,97774.36
2023-04-16T17:21:53.878Z,97773.70
2023-04-16T17:24:25.072Z,97772.56
2023-04-16T17:26:57.048Z,97775.48
2023-04-16T17:29:28.128Z,97776.05
2023-04-16T17:31:59.694Z,97779.34
2023-04-16T17:34:30.868Z,97784.17
2023-04-16T17:37:01.965Z,97783.58
2023-04-16T17:39:33.225Z,97782.90
2023-04-16T17:42:04.161Z,97787.61
2023-04-16T17:44:35.459Z,97790.80
2023-04-16T17:47:06.481Z,97792.81
2023-04-16T17:49:37.636Z,97795.84
2023-04-16T17:52:08.930Z,97792.76
2023-04-16T17:54:40.128Z,97800.86
2023-04-16T17:57:11.620Z,97799.75
2023-04-16T17:59:42.898Z,97802.57
2023-04-16T18:02:14.124Z,97800.81
2023-04-16T18:04:45.692Z,97805.35
2023-04-16T18:07:17.839Z,97809.75
2023-04-16T18:09:48.901Z,97811.29
2023-04-16T18:12:20.098Z,97815.52
2023-04-16T18:14:51.317Z,97813.42
2023-04-16T18:17:23.520Z,97817.74
2023-04-16T18:19:55.708Z,97822.70
2023-04-16T18:22:32.084Z,97824.59
2023-04-16T18:25:03.549Z,97829.81
2023-04-16T18:27:34.506Z,97834.20
2023-04-16T18:30:06.397Z,97840.91
2023-04-16T18:32:43.317Z,97842.61
2023-04-16T18:35:26.432Z,97845.48
2023-04-16T18:37:57.679Z,97852.85
2023-04-16T18:40:29.332Z,97853.94
2023-04-16T18:43:00.497Z,97860.44
2023-04-16T18:45:34.104Z,97863.16
2023-04-16T18:48:06.206Z,97865.51
2023-04-16T18:50:38.251Z,97866.14
2023-04-16T18:53:09.351Z,97869.66
2023-04-16T18:55:40.880Z,97868.30
2023-04-16T18:58:12.802Z,97870.32
2023-04-16T19:00:44.127Z,97870.09
2023-04-16T19:03:15.484Z,97873.85
2023-04-16T19:05:46.522Z,97881.12
2023-04-16T19:08:18.140Z,97879.80
2023-04-16T19:10:51.325Z,97882.76
2023-04-16T19:13:22.791Z,97886.48
2023-04-16T19:16:00.581Z,97884.79
2023-04-16T19:18:31.659Z,97887.69
2023-04-16T19:21:03.056Z,97885.50
2023-04-16T19:23:34.349Z,97889.01
2023-04-16T19:26:03.977Z,97890.48
2023-04-16T19:28:35.097Z,97890.64
2023-04-16T19:31:06.541Z,97888.44
2023-04-16T19:33:37.913Z,97887.78
2023-04-16T19:36:10.145Z,97891.63
2023-04-16T19:38:41.254Z,97895.23
2023-04-16T19:41:10.688Z,97892.52
2023-04-16T19:43:42.041Z,97891.02
2023-04-16T19:46:13.160Z,97893.64
2023-04-16T19:48:44.482Z,97896.25
2023-04-16T19:51:15.609Z,97899.14
2023-04-16T19:53:46.654Z,97895.02
2023-04-16T19:56:18.018Z,97898.44
2023-04-16T19:58:49.093Z,97899.52
2023-04-16T20:01:20.090Z,97901.46
2023-04-16T20:03:51.396Z,97902.88
2023-04-16T20:06:22.498Z,97899.86
2023-04-16T20:08:53.662Z,97903.82
2023-04-16T20:11:25.018Z,97901.42
2023-04-16T20:13:56.334Z,97900.56
2023-04-16T20:16:27.743Z,97902.64
2023-04-16T20:19:08.578Z,97904.02
2023-04-16T20:21:40.754Z,97902.14
2023-04-16T20:24:12.188Z,97899.38
2023-04-16T20:26:43.914Z,97899.30
2023-04-16T20:29:14.963Z,97898.25
2023-04-16T20:31:45.999Z,97893.89
2023-04-16T20:34:17.166Z,97894.33
2023-04-16T20:36:48.332Z,97896.31
2023-04-16T20:39:20.458Z,97892.38
2023-04-16T20:41:56.683Z,97891.61
2023-04-16T20:44:33.386Z,97892.70
2023-04-16T20:47:05.186Z,97892.30
2023-04-16T20:49:36.391Z,97892.31
2023-04-16T20:52:08.173Z,97895.31
2023-04-16T20:54:39.186Z,97895.54
2023-04-16T20:57:10.430Z,97900.48
2023-04-16T20:59:41.616Z,97903.28
2023-04-16T21:02:12.981Z,97901.75
2023-04-16T21:04:44.666Z,97908.09
2023-04-16T21:07:16.645Z,97904.61
2023-04-16T21:09:47.902Z,97908.51
2023-04-16T21:12:19.035Z,97908.82
2023-04-16T21:14:49.858Z,97909.31
2023-04-16T21:17:21.022Z,97911.69
2023-04-16T21:19:51.917Z,97910.67
2023-04-16T21:22:23.298Z,97912.23
2023-04-16T21:24:54.573Z,97910.66
2023-04-16T21:27:25.923Z,97906.45
2023-04-16T21:29:56.988Z,97907.66
2023-04-16T21:32:28.275Z,97905.23
2023-04-16T21:34:59.434Z,97903.88
2023-04-16T21:37:30.385Z,97903.70
2023-04-16T21:39:59.759Z,97902.19
2023-04-16T21:42:31.491Z,97898.91
2023-04-16T21:45:02.480Z,97899.08
2023-04-16T21:47:33.569Z,97904.10
2023-04-16T21:50:03.306Z,97898.69
2023-04-16T21:52:40.467Z,97893.63
2023-04-16T21:55:12.306Z,97893.96
2023-04-16T21:57:43.455Z,97897.14
2023-04-16T22:00:14.361Z,97895.91
2023-04-16T22:02:45.646Z,97899.01
2023-04-16T22:05:17.048Z,97900.29
2023-04-16T22:07:46.697Z,97896.77
2023-04-16T22:10:18.073Z,97901.42
2023-04-16T22:12:47.679Z,97898.73
2023-04-16T22:15:18.689Z,97900.81
2023-04-16T22:17:52.371Z,97895.98
2023-04-16T22:20:23.544Z,97897.35
2023-04-16T22:22:57.845Z,97895.98
2023-04-16T22:25:29.061Z,97897.83
2023-04-16T22:28:00.737Z,97899.61
2023-04-16T22:30:32.035Z,97902.73
2023-04-16T22:33:03.860Z,97903.86
2023-04-16T22:35:36.017Z,97903.70
2023-04-16T22:38:07.866Z,97902.13
2023-04-16T22:40:38.860Z,97899.95
2023-04-16T22:43:10.595Z,97896.84
2023-04-16T22:45:43.073Z,97899.73
2023-04-16T22:48:14.130Z,97897.14
2023-04-16T22:50:51.003Z,97896.27
2023-04-16T22:53:22.195Z,97895.23
2023-04-16T22:55:53.921Z,97899.58
2023-04-16T22:58:24.971Z,97901.95
2023-04-16T23:00:56.739Z,97900.10
2023-04-16T23:03:28.065Z,97901.10
2023-04-16T23:05:59.139Z,97900.73
2023-04-16T23:08:30.062Z,97905.04
2023-04-16T23:11:01.221Z,97907.56
2023-04-16T23:13:32.962Z,97904.64
2023-04-16T23:16:03.934Z,97901.30
2023-04-16T23:18:35.029Z,97903.17
2023-04-16T23:21:04.705Z,97898.69
2023-04-16T23:23:36.060Z,97898.17
2023-04-16T23:26:07.753Z,97897.76
2023-04-16T23:28:38.746Z,97896.63
2023-04-16T23:31:09.723Z,97894.89
2023-04-16T23:33:40.847Z,97892.80
2023-04-16T23:36:12.741Z,97889.75
2023-04-16T23:38:43.787Z,97891.02
2023-04-16T23:41:14.734Z,97888.61
2023-04-16T23:43:45.819Z,97885.34
2023-04-16T23:46:16.751Z,97886.48
2023-04-16T23:48:50.283Z,97887.84
2023-04-16T23:51:21.223Z,97883.76
2023-04-16T23:53:52.144Z,97883.34
2023-04-16T23:56:21.851Z,97886.23
2023-04-16T23:58:53.627Z,97882.41
